Time;durP1;ratioP1;P1;durP2;ratioP2;P2;SDS_P1;SDS_P2;PMS_P1;PMS_P2;Temp;Humidity;BMP_temperature;BMP_pressure;BME280_temperature;BME280_humidity;BME280_pressure;Samples;Min_cycle;Max_cycle;Signal;HPM_P1;HPM_P2
2021/11/28 00:02:00;;;;;;;34.97;21.33;;;;;;;10.87;100.00;99779.03;5115739;28;20039;-72
2021/11/28 00:04:51;;;;;;;35.83;21.27;;;;;;;10.83;100.00;99779.16;5114561;28;20034;-71
2021/11/28 00:16:14;;;;;;;35.63;22.13;;;;;;;10.52;100.00;99760.97;5115332;28;20053;-72
2021/11/28 00:19:00;;;;;;;35.28;21.73;;;;;;;10.62;100.00;99762.41;5114994;28;20035;-72
2021/11/28 00:21:45;;;;;;;37.30;22.60;;;;;;;10.17;100.00;99763.88;5114118;28;20110;-71
2021/11/28 00:24:32;;;;;;;37.83;23.02;;;;;;;10.10;100.00;99760.56;5100493;28;20172;-72
2021/11/28 00:27:18;;;;;;;34.28;22.63;;;;;;;10.10;100.00;99763.19;5114648;28;20031;-72
2021/11/28 00:30:07;;;;;;;39.63;23.95;;;;;;;10.02;100.00;99764.31;5100830;28;20352;-72
2021/11/28 00:32:53;;;;;;;39.30;24.38;;;;;;;9.52;100.00;99773.63;5114705;28;20027;-72
2021/11/28 00:35:39;;;;;;;41.42;25.80;;;;;;;9.61;100.00;99769.91;5114121;28;20107;-71
2021/11/28 00:38:25;;;;;;;40.53;24.42;;;;;;;9.43;100.00;99765.19;5114454;28;20385;-72
2021/11/28 00:41:11;;;;;;;35.97;24.63;;;;;;;9.35;100.00;99769.75;5114633;28;20352;-70
2021/11/28 00:43:57;;;;;;;38.22;25.27;;;;;;;9.34;100.00;99766.31;5114409;28;20023;-71
2021/11/28 00:46:42;;;;;;;39.13;24.63;;;;;;;9.20;100.00;99775.41;5099866;28;20035;-71
2021/11/28 00:49:28;;;;;;;38.60;24.88;;;;;;;9.20;100.00;99776.28;5114507;28;20028;-71
2021/11/28 00:52:14;;;;;;;40.50;24.98;;;;;;;9.46;100.00;99760.75;5114034;28;20027;-71
2021/11/28 00:55:01;;;;;;;36.90;23.85;;;;;;;9.40;100.00;99762.63;5114063;28;20023;-72
2021/11/28 00:57:46;;;;;;;42.25;25.65;;;;;;;9.27;100.00;99761.28;5113863;28;20023;-72
2021/11/28 01:00:33;;;;;;;39.00;24.23;;;;;;;9.42;100.00;99763.47;5100859;28;20039;-73
2021/11/28 01:03:18;;;;;;;48.63;27.65;;;;;;;9.47;100.00;99770.28;5113949;28;20031;-72
2021/11/28 01:06:04;;;;;;;57.70;32.70;;;;;;;9.45;100.00;99758.16;5113855;28;20039;-72
2021/11/28 01:08:50;;;;;;;58.75;32.70;;;;;;;9.53;100.00;99758.81;5103327;28;20028;-71
2021/11/28 01:11:36;;;;;;;60.47;33.25;;;;;;;9.73;100.00;99752.09;5118404;28;20035;-74
2021/11/28 01:14:22;;;;;;;59.30;32.88;;;;;;;9.41;100.00;99756.53;5118370;28;20027;-72
2021/11/28 01:17:07;;;;;;;50.25;28.77;;;;;;;9.51;100.00;99750.13;5117583;28;20028;-73
2021/11/28 01:19:53;;;;;;;44.85;26.77;;;;;;;9.44;100.00;99743.34;5118167;28;20020;-72
2021/11/28 01:22:40;;;;;;;47.78;26.20;;;;;;;9.20;100.00;99747.53;5117862;28;20363;-73
2021/11/28 01:25:26;;;;;;;45.35;27.55;;;;;;;9.42;100.00;99750.41;5117441;28;20132;-73
2021/11/28 01:28:12;;;;;;;39.38;25.20;;;;;;;9.21;100.00;99753.63;5117237;28;20070;-72
2021/11/28 01:30:58;;;;;;;40.17;25.85;;;;;;;9.23;100.00;99747.44;5117705;28;20027;-71
2021/11/28 01:33:43;;;;;;;42.10;25.23;;;;;;;8.96;100.00;99740.34;5117986;28;20428;-71
2021/11/28 01:36:29;;;;;;;40.30;24.63;;;;;;;9.09;100.00;99738.28;5117859;28;20088;-72
2021/11/28 01:39:15;;;;;;;40.60;25.33;;;;;;;9.19;100.00;99739.72;5103373;28;20171;-72
2021/11/28 01:42:01;;;;;;;39.75;25.13;;;;;;;9.43;100.00;99737.28;5117795;28;20027;-73
2021/11/28 01:44:47;;;;;;;41.10;25.00;;;;;;;9.29;100.00;99730.75;5117906;28;20027;-71
2021/11/28 01:47:32;;;;;;;38.72;24.80;;;;;;;9.64;100.00;99722.72;5117640;28;20020;-72
2021/11/28 01:50:19;;;;;;;37.95;25.45;;;;;;;9.50;100.00;99731.00;5117639;28;20106;-72
2021/11/28 01:53:12;;;;;;;39.95;24.65;;;;;;;9.27;100.00;99729.91;5117630;28;20038;-73
2021/11/28 01:55:57;;;;;;;41.97;26.08;;;;;;;9.31;100.00;99727.19;5103298;28;20110;-72
2021/11/28 01:58:44;;;;;;;44.10;27.58;;;;;;;9.02;100.00;99721.03;5103062;28;20020;-72
2021/11/28 02:01:30;;;;;;;41.38;25.60;;;;;;;9.15;100.00;99725.03;5103579;28;20114;-72
2021/11/28 02:04:17;;;;;;;39.33;25.77;;;;;;;9.20;100.00;99728.38;5116916;28;20023;-73
2021/11/28 02:07:03;;;;;;;43.08;26.48;;;;;;;9.24;100.00;99717.78;5117243;28;20078;-73
2021/11/28 02:09:49;;;;;;;40.22;25.52;;;;;;;9.25;100.00;99710.81;5116951;28;20034;-71
2021/11/28 02:12:35;;;;;;;39.83;25.45;;;;;;;9.36;100.00;99707.00;5116848;28;20460;-74
2021/11/28 02:15:22;;;;;;;40.47;25.90;;;;;;;9.32;100.00;99705.38;5117194;28;20027;-72
2021/11/28 02:18:08;;;;;;;40.28;25.77;;;;;;;9.42;100.00;99703.34;5117760;28;20412;-71
2021/11/28 02:20:57;;;;;;;38.22;24.77;;;;;;;9.21;100.00;99691.75;5116797;28;20036;-73
2021/11/28 02:23:43;;;;;;;44.05;25.15;;;;;;;9.39;100.00;99693.84;5116473;28;20047;-72
2021/11/28 02:26:30;;;;;;;37.92;24.42;;;;;;;9.33;100.00;99701.00;5116210;28;20059;-72
2021/11/28 02:29:16;;;;;;;38.08;24.20;;;;;;;8.83;100.00;99702.41;5102582;28;20059;-71
2021/11/28 02:32:02;;;;;;;39.75;24.80;;;;;;;8.86;100.00;99694.47;5116665;28;20140;-70
2021/11/28 02:34:47;;;;;;;38.55;24.85;;;;;;;8.70;100.00;99698.41;5116253;28;20028;-72
2021/11/28 02:37:33;;;;;;;40.13;25.15;;;;;;;9.13;100.00;99700.72;5117396;28;20028;-71
2021/11/28 02:40:22;;;;;;;35.92;23.70;;;;;;;9.36;100.00;99682.59;5102290;28;20020;-72
2021/11/28 02:43:09;;;;;;;33.58;22.75;;;;;;;9.24;100.00;99682.94;5102896;28;20460;-72
2021/11/28 02:45:55;;;;;;;39.15;23.83;;;;;;;9.20;100.00;99687.41;5116170;28;20019;-72
2021/11/28 02:48:40;;;;;;;38.83;25.27;;;;;;;9.13;100.00;99690.25;5116230;28;20454;-72
2021/11/28 02:51:26;;;;;;;35.03;23.23;;;;;;;9.25;100.00;99672.47;5116082;28;20043;-72
2021/11/28 02:54:12;;;;;;;38.50;24.88;;;;;;;8.89;100.00;99670.88;5116802;28;20066;-72
2021/11/28 02:56:58;;;;;;;36.38;23.45;;;;;;;9.19;100.00;99677.00;5116070;28;20028;-72
2021/11/28 02:59:44;;;;;;;39.22;24.23;;;;;;;9.11;100.00;99685.06;5116070;28;20100;-72
2021/11/28 03:02:30;;;;;;;36.20;22.42;;;;;;;9.19;100.00;99692.69;5102241;28;20038;-71
2021/11/28 03:05:16;;;;;;;35.28;22.92;;;;;;;9.10;100.00;99680.75;5115751;28;20030;-71
2021/11/28 03:08:02;;;;;;;38.17;23.67;;;;;;;9.15;100.00;99675.38;5115651;28;20037;-72
2021/11/28 03:10:53;;;;;;;35.85;23.10;;;;;;;9.05;100.00;99666.09;5115711;28;20027;-71
2021/11/28 03:13:43;;;;;;;36.72;24.08;;;;;;;9.21;100.00;99660.38;5116608;28;20047;-71
2021/11/28 03:16:29;;;;;;;37.55;24.20;;;;;;;9.14;100.00;99661.47;5115498;28;20032;-72
2021/11/28 03:19:15;;;;;;;37.53;22.67;;;;;;;9.07;100.00;99659.06;5116072;28;20050;-71
2021/11/28 03:22:00;;;;;;;39.97;25.10;;;;;;;9.19;100.00;99663.94;5115320;28;20101;-71
2021/11/28 03:24:46;;;;;;;34.95;23.33;;;;;;;9.03;100.00;99660.06;5115142;28;20135;-72
2021/11/28 03:27:32;;;;;;;41.30;25.15;;;;;;;8.81;100.00;99651.09;5115340;28;20019;-71
2021/11/28 03:30:20;;;;;;;43.08;25.52;;;;;;;8.88;100.00;99640.44;5115044;28;20028;-71
2021/11/28 03:33:06;;;;;;;44.00;27.33;;;;;;;9.11;100.00;99637.19;5115458;28;20034;-71
2021/11/28 03:35:52;;;;;;;46.97;28.17;;;;;;;8.86;100.00;99628.31;5115644;28;20087;-72
2021/11/28 03:38:39;;;;;;;43.80;27.17;;;;;;;9.01;100.00;99633.13;5115737;28;20034;-71
2021/11/28 03:41:29;;;;;;;47.25;29.75;;;;;;;8.89;100.00;99636.91;5114797;28;20102;-72
2021/11/28 03:44:15;;;;;;;47.70;29.25;;;;;;;9.21;100.00;99636.03;5115743;28;20425;-71
2021/11/28 03:47:01;;;;;;;44.25;28.95;;;;;;;9.17;100.00;99627.41;5114574;28;20027;-71
2021/11/28 03:49:47;;;;;;;47.20;29.95;;;;;;;9.04;100.00;99625.19;5115273;28;20115;-72
2021/11/28 03:52:34;;;;;;;48.72;30.25;;;;;;;9.01;100.00;99633.13;5114688;28;20027;-71
2021/11/28 03:55:22;;;;;;;51.33;31.00;;;;;;;9.04;100.00;99633.03;5114854;28;20436;-72
2021/11/28 03:58:08;;;;;;;51.17;31.20;;;;;;;9.00;100.00;99649.69;5114901;28;20119;-72
2021/11/28 04:00:56;;;;;;;46.47;29.70;;;;;;;8.88;100.00;99657.88;5115165;28;20038;-72
2021/11/28 04:03:42;;;;;;;48.20;30.30;;;;;;;9.02;100.00;99661.81;5114513;28;20474;-72
2021/11/28 04:06:28;;;;;;;47.47;29.05;;;;;;;8.99;100.00;99664.50;5116664;27;20089;-72
2021/11/28 04:09:14;;;;;;;43.10;27.73;;;;;;;8.65;100.00;99666.31;5099434;28;20024;-74
2021/11/28 04:12:00;;;;;;;41.30;26.67;;;;;;;8.96;100.00;99659.38;5101613;28;20034;-71
2021/11/28 04:14:46;;;;;;;44.00;26.75;;;;;;;8.83;100.00;99663.22;5114252;28;20020;-72
2021/11/28 04:17:33;;;;;;;43.00;27.58;;;;;;;8.98;100.00;99677.63;5114177;28;20024;-71
2021/11/28 04:20:18;;;;;;;40.38;26.60;;;;;;;8.66;100.00;99682.84;5116116;28;20035;-70
2021/11/28 04:23:05;;;;;;;44.15;27.55;;;;;;;8.72;100.00;99677.47;5114049;28;20031;-71
2021/11/28 04:25:51;;;;;;;47.17;29.48;;;;;;;8.77;100.00;99672.97;5099624;28;20044;-71
2021/11/28 04:28:36;;;;;;;49.55;31.95;;;;;;;8.99;100.00;99664.50;5100271;28;20366;-72
2021/11/28 04:31:22;;;;;;;52.30;31.98;;;;;;;9.22;100.00;99669.09;5114762;28;20066;-72
2021/11/28 04:34:08;;;;;;;51.67;31.77;;;;;;;9.24;100.00;99662.03;5113808;28;20099;-72
2021/11/28 04:36:54;;;;;;;51.58;33.17;;;;;;;8.95;100.00;99672.47;5113942;28;20043;-71
2021/11/28 04:39:40;;;;;;;52.88;32.38;;;;;;;8.90;100.00;99670.00;5113998;28;20031;-71
2021/11/28 04:42:27;;;;;;;50.85;33.15;;;;;;;8.58;100.00;99683.06;5113765;28;20023;-71
2021/11/28 04:45:13;;;;;;;61.10;35.72;;;;;;;8.14;100.00;99685.00;5114132;28;20027;-72
2021/11/28 04:47:59;;;;;;;57.50;34.80;;;;;;;8.39;100.00;99687.03;5114621;28;20038;-71
2021/11/28 04:50:45;;;;;;;66.88;39.03;;;;;;;8.52;100.00;99690.19;5100113;28;20519;-71
2021/11/28 04:53:31;;;;;;;67.72;41.88;;;;;;;8.62;100.00;99692.53;5113849;28;20070;-71
2021/11/28 04:56:16;;;;;;;68.43;44.28;;;;;;;8.70;100.00;99695.78;5114462;28;20087;-71
2021/11/28 04:59:02;;;;;;;64.57;42.22;;;;;;;8.84;100.00;99687.59;5113564;28;20019;-72
2021/11/28 05:01:48;;;;;;;72.97;45.75;;;;;;;8.59;100.00;99689.97;5100829;28;20115;-71
2021/11/28 05:04:34;;;;;;;70.40;45.47;;;;;;;8.77;100.00;99707.75;5113576;28;20059;-71
2021/11/28 05:07:20;;;;;;;67.15;45.00;;;;;;;8.91;100.00;99705.66;5113648;28;20100;-72
2021/11/28 05:10:06;;;;;;;65.90;43.30;;;;;;;9.00;100.00;99701.91;5114306;28;20027;-71
2021/11/28 05:12:52;;;;;;;66.45;44.38;;;;;;;8.76;100.00;99700.84;5113889;28;20019;-71
2021/11/28 05:15:38;;;;;;;66.95;41.00;;;;;;;8.71;100.00;99702.72;5113844;28;20031;-71
2021/11/28 05:18:24;;;;;;;61.50;38.70;;;;;;;9.14;100.00;99707.66;5099438;28;20412;-71
2021/11/28 05:21:10;;;;;;;55.72;34.00;;;;;;;9.14;100.00;99710.25;5113686;28;20088;-71
2021/11/28 05:23:55;;;;;;;54.92;32.85;;;;;;;9.00;100.00;99701.91;5113846;28;20439;-72
2021/11/28 05:26:41;;;;;;;49.83;30.77;;;;;;;9.08;100.00;99695.59;5113133;28;20051;-72
2021/11/28 05:29:27;;;;;;;47.10;29.25;;;;;;;8.76;100.00;99702.59;5113099;28;20035;-72
2021/11/28 05:32:13;;;;;;;40.65;27.00;;;;;;;8.73;100.00;99711.34;5113492;28;20536;-71
2021/11/28 05:34:58;;;;;;;38.63;24.95;;;;;;;8.98;100.00;99724.63;5113347;28;20516;-71
2021/11/28 05:37:45;;;;;;;34.17;23.55;;;;;;;9.20;100.00;99724.00;5099355;28;20023;-72
2021/11/28 05:40:31;;;;;;;34.30;22.38;;;;;;;9.12;100.00;99735.56;5113495;28;20034;-71
2021/11/28 05:43:17;;;;;;;38.60;23.23;;;;;;;8.55;100.00;99737.94;5113919;28;20020;-71
2021/11/28 05:46:03;;;;;;;39.97;22.92;;;;;;;8.70;100.00;99750.63;5113692;28;20363;-72
2021/11/28 05:48:49;;;;;;;37.05;23.88;;;;;;;8.93;100.00;99755.25;5113383;28;20028;-72
2021/11/28 05:51:35;;;;;;;43.58;28.15;;;;;;;8.32;100.00;99750.69;5114466;28;20397;-72
2021/11/28 05:54:20;;;;;;;36.20;24.35;;;;;;;8.32;100.00;99761.13;5115003;28;20038;-72
2021/11/28 05:57:06;;;;;;;38.25;24.80;;;;;;;8.19;100.00;99759.66;5117055;28;20119;-71
2021/11/28 05:59:52;;;;;;;34.05;23.02;;;;;;;8.13;100.00;99772.00;5116874;28;20477;-71
2021/11/28 06:02:39;;;;;;;33.58;21.90;;;;;;;8.44;100.00;99773.88;5117580;28;20038;-72
2021/11/28 06:05:24;;;;;;;118.28;75.43;;;;;;;8.49;100.00;99772.00;5117385;28;20394;-71
2021/11/28 06:08:10;;;;;;;58.38;38.53;;;;;;;8.69;100.00;99769.78;5116899;28;20102;-71
2021/11/28 06:10:56;;;;;;;49.33;31.33;;;;;;;9.03;100.00;99770.63;5116648;28;20433;-71
2021/11/28 06:13:42;;;;;;;56.40;38.00;;;;;;;8.66;100.00;99776.84;5117294;28;20019;-72
2021/11/28 06:16:28;;;;;;;41.05;27.23;;;;;;;9.07;100.00;99782.72;5116552;28;20035;-72
2021/11/28 06:19:14;;;;;;;46.85;30.08;;;;;;;8.63;100.00;99783.00;5117509;28;20015;-71
2021/11/28 06:21:59;;;;;;;45.20;27.17;;;;;;;8.53;100.00;99784.09;5118408;27;20032;-73
2021/11/28 06:24:45;;;;;;;42.20;26.48;;;;;;;9.04;100.00;99782.78;5116534;28;20024;-72
2021/11/28 06:27:31;;;;;;;34.88;23.45;;;;;;;8.80;100.00;99779.97;5117256;28;20028;-72
2021/11/28 06:30:17;;;;;;;41.53;24.98;;;;;;;8.93;100.00;99783.97;5116525;28;20312;-72
2021/11/28 06:33:03;;;;;;;50.75;34.08;;;;;;;9.37;100.00;99770.59;5116232;28;20020;-71
2021/11/28 06:35:48;;;;;;;41.75;27.08;;;;;;;8.91;100.00;99767.47;5116219;28;20066;-71
2021/11/28 06:38:34;;;;;;;42.42;28.05;;;;;;;9.45;100.00;99774.69;5116727;28;20348;-72
2021/11/28 06:41:24;;;;;;;42.17;27.90;;;;;;;9.43;100.00;99771.28;5116557;28;20031;-72
2021/11/28 06:44:10;;;;;;;43.85;28.77;;;;;;;9.64;100.00;99767.19;5117138;28;20035;-72
2021/11/28 06:46:56;;;;;;;49.22;30.17;;;;;;;9.57;100.00;99774.34;5115875;28;20027;-72
2021/11/28 06:49:42;;;;;;;54.05;33.05;;;;;;;9.67;100.00;99769.72;5116901;28;20063;-71
2021/11/28 06:52:27;;;;;;;54.38;33.30;;;;;;;9.36;100.00;99772.34;5116412;28;20032;-71
2021/11/28 06:55:13;;;;;;;59.78;34.30;;;;;;;9.21;100.00;99772.75;5101764;28;20023;-72
2021/11/28 06:57:59;;;;;;;50.15;32.58;;;;;;;10.15;100.00;99789.22;5116068;28;20030;-72
2021/11/28 07:00:45;;;;;;;50.50;31.20;;;;;;;9.97;100.00;99802.84;5116470;28;20019;-72
2021/11/28 07:03:31;;;;;;;38.97;23.83;;;;;;;9.75;100.00;99807.84;5115944;28;20035;-73
2021/11/28 07:06:17;;;;;;;28.52;20.08;;;;;;;9.74;100.00;99813.94;5116109;28;20451;-70
2021/11/28 07:09:03;;;;;;;32.00;20.45;;;;;;;9.77;100.00;99820.88;5102670;28;20084;-72
2021/11/28 07:11:49;;;;;;;29.88;18.70;;;;;;;9.80;100.00;99815.53;5116102;28;20019;-71
2021/11/28 07:14:35;;;;;;;31.27;20.67;;;;;;;9.59;100.00;99837.94;5116901;28;20458;-72
2021/11/28 07:17:21;;;;;;;30.67;18.50;;;;;;;10.15;100.00;99836.34;5115258;28;20065;-71
2021/11/28 07:20:07;;;;;;;33.30;20.08;;;;;;;9.81;100.00;99832.97;5116217;28;20024;-72
2021/11/28 07:22:53;;;;;;;30.23;19.42;;;;;;;10.20;100.00;99826.56;5115813;28;20032;-71
2021/11/28 07:25:39;;;;;;;30.15;19.60;;;;;;;9.86;100.00;99837.13;5115373;28;20126;-72
2021/11/28 07:28:25;;;;;;;29.40;19.70;;;;;;;9.93;100.00;99840.47;5115453;28;20023;-72
2021/11/28 07:31:11;;;;;;;32.25;20.60;;;;;;;9.78;100.00;99838.28;5115210;28;20085;-72
2021/11/28 07:33:56;;;;;;;31.38;20.63;;;;;;;10.69;100.00;99821.53;5115144;28;20046;-71
2021/11/28 07:36:42;;;;;;;28.67;20.30;;;;;;;10.48;100.00;99827.44;5115244;28;20024;-72
2021/11/28 07:39:28;;;;;;;30.90;20.88;;;;;;;10.51;100.00;99816.03;5101729;28;20359;-73
2021/11/28 07:42:14;;;;;;;31.70;21.27;;;;;;;11.25;100.00;99809.19;5115600;28;20019;-72
2021/11/28 07:44:59;;;;;;;34.88;21.58;;;;;;;10.92;100.00;99812.91;5115874;28;20031;-73
2021/11/28 07:47:45;;;;;;;31.35;21.27;;;;;;;11.30;100.00;99822.97;5115373;28;20023;-72
2021/11/28 07:50:31;;;;;;;32.40;21.38;;;;;;;12.22;100.00;99847.56;5116617;27;20027;-73
2021/11/28 07:53:17;;;;;;;32.72;22.10;;;;;;;12.31;100.00;99855.13;5114958;28;20025;-72
2021/11/28 07:56:03;;;;;;;32.08;21.48;;;;;;;12.76;100.00;99862.97;5115213;28;20024;-73
2021/11/28 07:58:50;;;;;;;31.05;20.60;;;;;;;12.81;100.00;99856.63;5114785;28;20023;-73
2021/11/28 08:01:35;;;;;;;27.60;18.20;;;;;;;12.66;100.00;99859.00;5115164;28;20023;-72
2021/11/28 08:04:21;;;;;;;28.58;17.63;;;;;;;12.33;100.00;99860.28;5115730;28;20030;-72
2021/11/28 08:07:07;;;;;;;23.92;16.70;;;;;;;12.78;100.00;99874.28;5115237;28;20103;-71
2021/11/28 08:09:53;;;;;;;23.95;16.35;;;;;;;12.48;100.00;99870.22;5114491;28;20124;-72
2021/11/28 08:12:38;;;;;;;26.40;17.45;;;;;;;12.32;100.00;99855.97;5115013;28;20032;-72
2021/11/28 08:15:24;;;;;;;22.88;16.42;;;;;;;12.94;100.00;99860.44;5114308;28;20023;-71
2021/11/28 08:18:10;;;;;;;24.17;16.40;;;;;;;13.16;100.00;99871.00;5115814;27;20015;-72
2021/11/28 08:20:57;;;;;;;23.27;16.67;;;;;;;13.64;100.00;99880.31;5115069;28;20107;-72
2021/11/28 08:23:42;;;;;;;27.08;16.75;;;;;;;13.70;100.00;99881.78;5100670;28;20023;-72
2021/11/28 08:26:30;;;;;;;22.80;16.17;;;;;;;13.36;100.00;99869.25;5114668;28;20043;-72
2021/11/28 08:29:15;;;;;;;24.55;16.48;;;;;;;14.98;100.00;99862.69;5113851;28;20076;-72
2021/11/28 08:32:02;;;;;;;21.83;16.10;;;;;;;15.48;100.00;99854.00;5114620;28;20031;-73
2021/11/28 08:34:47;;;;;;;26.70;16.70;;;;;;;14.26;100.00;99864.38;5114546;28;20030;-73
2021/11/28 08:37:33;;;;;;;23.58;15.25;;;;;;;14.79;100.00;99847.75;5114900;28;20023;-71
2021/11/28 08:40:19;;;;;;;23.55;15.27;;;;;;;14.65;100.00;99842.28;5115776;27;20028;-72
2021/11/28 08:43:06;;;;;;;21.30;15.13;;;;;;;14.76;100.00;99844.41;5114978;28;20034;-72
2021/11/28 08:45:52;;;;;;;23.40;15.48;;;;;;;14.61;100.00;99832.81;5114653;28;20371;-72
2021/11/28 08:48:38;;;;;;;21.58;14.88;;;;;;;14.15;100.00;99840.28;5101539;27;20027;-72
2021/11/28 08:51:25;;;;;;;22.65;14.93;;;;;;;14.09;100.00;99843.19;5113924;28;20024;-72
2021/11/28 08:54:13;;;;;;;21.95;15.65;;;;;;;14.54;100.00;99836.66;5114591;28;20080;-72
2021/11/28 08:57:00;;;;;;;23.85;15.80;;;;;;;15.44;100.00;99830.44;5114782;28;20110;-71
2021/11/28 08:59:47;;;;;;;25.08;15.90;;;;;;;15.18;100.00;99809.78;5114131;28;20110;-73
2021/11/28 09:02:32;;;;;;;26.15;16.95;;;;;;;15.24;100.00;99802.41;5114332;28;20062;-72
2021/11/28 09:05:20;;;;;;;24.02;17.02;;;;;;;15.50;100.00;99801.09;5113377;28;20408;-72
2021/11/28 09:08:06;;;;;;;27.00;16.63;;;;;;;14.77;100.00;99801.28;5113948;28;20102;-72
2021/11/28 09:10:52;;;;;;;23.92;16.15;;;;;;;14.50;100.00;99802.59;5114184;28;20088;-72
2021/11/28 09:13:37;;;;;;;27.27;17.48;;;;;;;14.74;100.00;99790.88;5114079;28;20062;-73
2021/11/28 09:16:23;;;;;;;26.95;17.70;;;;;;;14.90;100.00;99794.47;5113969;28;20038;-72
2021/11/28 09:19:58;;;;;;;25.30;16.50;;;;;;;14.59;100.00;99795.13;5114882;28;20031;-72
2021/11/28 09:25:33;;;;;;;25.20;18.40;;;;;;;14.50;100.00;99795.56;5098710;28;20044;-73
2021/11/28 09:28:19;;;;;;;23.77;16.05;;;;;;;14.24;100.00;99818.81;5114413;28;20103;-72
2021/11/28 09:31:11;;;;;;;24.92;16.27;;;;;;;13.66;100.00;99832.84;5117944;28;20364;-72
2021/11/28 09:33:58;;;;;;;25.58;15.65;;;;;;;13.89;100.00;99851.13;5103648;28;20422;-73
2021/11/28 09:36:44;;;;;;;26.67;17.05;;;;;;;13.82;100.00;99858.44;5117364;28;20034;-71
2021/11/28 09:39:30;;;;;;;28.60;17.73;;;;;;;14.24;100.00;99847.78;5117884;28;20106;-73
2021/11/28 09:42:27;;;;;;;28.65;17.88;;;;;;;14.19;100.00;99834.78;5117740;28;20019;-73
2021/11/28 09:45:13;;;;;;;26.50;18.48;;;;;;;14.25;100.00;99829.28;5117236;28;20168;-72
2021/11/28 09:48:00;;;;;;;39.72;22.50;;;;;;;14.31;100.00;99817.59;5117302;28;20031;-73
2021/11/28 09:50:47;;;;;;;29.33;18.70;;;;;;;14.54;100.00;99812.94;5103455;28;20027;-71
2021/11/28 09:53:34;;;;;;;30.92;19.35;;;;;;;15.05;100.00;99822.72;5117015;28;20031;-73
2021/11/28 09:56:20;;;;;;;33.03;18.65;;;;;;;14.79;100.00;99816.09;5117275;28;20417;-72
2021/11/28 09:59:08;;;;;;;28.63;17.98;;;;;;;14.49;100.00;99822.00;5117524;28;20015;-72
2021/11/28 10:01:56;;;;;;;31.67;19.40;;;;;;;14.72;100.00;99806.78;5117878;28;20027;-71
2021/11/28 10:04:41;;;;;;;25.55;17.90;;;;;;;14.68;100.00;99810.47;5116966;28;20152;-72
2021/11/28 10:07:27;;;;;;;30.77;19.67;;;;;;;15.33;100.00;99803.72;5103757;28;20023;-73
2021/11/28 10:10:15;;;;;;;28.08;18.38;;;;;;;15.39;100.00;99787.63;5103535;28;20034;-72
2021/11/28 10:13:02;;;;;;;27.55;17.27;;;;;;;16.12;100.00;99785.41;5103346;28;20036;-72
2021/11/28 10:15:50;;;;;;;26.23;16.88;;;;;;;15.66;100.00;99770.31;5116897;28;20020;-74
2021/11/28 10:18:36;;;;;;;24.80;16.15;;;;;;;15.89;100.00;99773.44;5117494;28;20020;-72
2021/11/28 10:21:22;;;;;;;26.85;17.42;;;;;;;15.98;100.00;99772.06;5117576;28;20459;-73
2021/11/28 10:24:13;;;;;;;28.70;17.25;;;;;;;16.11;100.00;99760.75;5117037;28;20036;-72
2021/11/28 10:27:08;;;;;;;27.25;18.05;;;;;;;15.75;100.00;99762.75;5102370;28;20084;-72
2021/11/28 10:29:54;;;;;;;24.23;16.20;;;;;;;16.21;100.00;99759.34;5102385;28;20035;-72
2021/11/28 10:32:42;;;;;;;24.02;16.23;;;;;;;16.00;100.00;99751.72;5117165;28;20447;-72
2021/11/28 10:35:28;;;;;;;22.58;15.88;;;;;;;15.50;100.00;99743.00;5116152;28;20031;-72
2021/11/28 10:38:14;;;;;;;22.23;14.52;;;;;;;16.02;100.00;99742.78;5116518;28;20031;-72
2021/11/28 10:41:00;;;;;;;19.77;14.05;;;;;;;16.45;100.00;99747.41;5115855;28;20446;-72
2021/11/28 10:43:46;;;;;;;18.15;13.45;;;;;;;16.48;100.00;99756.97;5116954;28;20046;-73
2021/11/28 10:46:33;;;;;;;24.02;13.63;;;;;;;16.11;100.00;99758.13;5116099;28;20065;-73
2021/11/28 10:49:21;;;;;;;21.10;13.77;;;;;;;16.63;100.00;99749.00;5103551;28;20462;-73
2021/11/28 10:52:14;;;;;;;19.08;13.55;;;;;;;17.01;97.42;99752.94;5102850;28;20031;-72
2021/11/28 10:55:14;;;;;;;21.55;13.43;;;;;;;17.19;95.74;99762.44;5115899;28;20486;-73
2021/11/28 10:58:20;;;;;;;21.73;13.75;;;;;;;17.37;94.48;99768.41;5116273;28;20488;-72
2021/11/28 11:01:08;;;;;;;19.85;13.18;;;;;;;16.87;95.96;99771.41;5116667;28;20177;-72
2021/11/28 11:03:53;;;;;;;22.05;12.75;;;;;;;17.12;94.43;99776.97;5116189;28;20055;-73
2021/11/28 11:06:39;;;;;;;16.85;12.18;;;;;;;17.61;90.61;99783.69;5116529;28;20114;-72
2021/11/28 11:09:25;;;;;;;19.00;12.85;;;;;;;17.44;91.20;99788.34;5115547;28;20030;-73
2021/11/28 11:12:24;;;;;;;16.67;12.07;;;;;;;17.71;88.97;99792.81;5102085;28;20024;-72
2021/11/28 11:15:09;;;;;;;16.60;10.88;;;;;;;17.70;88.13;99779.66;5116141;28;20046;-73
2021/11/28 11:17:58;;;;;;;18.67;10.55;;;;;;;17.99;86.21;99784.00;5115688;28;20032;-73
2021/11/28 11:20:46;;;;;;;17.55;10.98;;;;;;;17.90;84.65;99779.28;5116007;28;20107;-72
2021/11/28 11:23:44;;;;;;;18.25;12.32;;;;;;;18.14;84.63;99773.31;5115316;28;20043;-71
2021/11/28 11:26:31;;;;;;;14.80;9.60;;;;;;;17.71;85.47;99787.50;5115762;28;20218;-73
2021/11/28 11:29:18;;;;;;;12.48;9.13;;;;;;;17.86;84.32;99769.81;5115648;28;20027;-73
2021/11/28 11:32:09;;;;;;;12.75;8.90;;;;;;;17.80;85.12;99765.75;5101475;28;20031;-72
2021/11/28 11:34:58;;;;;;;11.85;8.45;;;;;;;18.55;81.23;99755.63;5114522;28;20111;-72
2021/11/28 11:37:45;;;;;;;13.73;9.65;;;;;;;18.61;81.11;99749.06;5116207;28;20035;-72
2021/11/28 11:40:31;;;;;;;14.30;10.13;;;;;;;18.61;79.95;99759.69;5114834;28;20043;-73
2021/11/28 11:43:18;;;;;;;20.05;10.18;;;;;;;19.32;77.05;99770.84;5115529;28;20047;-73
2021/11/28 11:46:09;;;;;;;14.60;10.50;;;;;;;19.51;75.42;99761.50;5101006;28;20053;-74
2021/11/28 11:48:55;;;;;;;14.75;10.13;;;;;;;19.43;75.11;99770.94;5115591;28;20024;-73
2021/11/28 11:51:42;;;;;;;15.93;10.55;;;;;;;18.99;74.97;99750.03;5114156;28;20027;-73
2021/11/28 11:54:30;;;;;;;14.50;10.10;;;;;;;18.92;78.07;99748.72;5115739;28;20432;-72
2021/11/28 11:57:16;;;;;;;14.52;9.77;;;;;;;19.28;75.66;99751.59;5114789;28;20080;-72
2021/11/28 12:00:12;;;;;;;14.50;10.10;;;;;;;19.20;75.69;99740.59;5114288;28;20020;-73
2021/11/28 12:03:13;;;;;;;13.73;9.48;;;;;;;19.07;76.27;99750.34;5115408;28;20122;-72
2021/11/28 12:05:59;;;;;;;15.77;10.25;;;;;;;18.96;76.81;99755.53;5114590;28;20027;-73
2021/11/28 12:08:53;;;;;;;16.35;9.82;;;;;;;18.71;78.58;99747.50;5115190;28;20032;-73
2021/11/28 12:12:00;;;;;;;16.35;11.02;;;;;;;18.74;80.29;99734.88;5114385;28;20024;-72
2021/11/28 12:15:17;;;;;;;15.95;11.20;;;;;;;18.65;81.92;99729.34;5116413;27;20019;-73
2021/11/28 12:18:04;;;;;;;21.33;11.90;;;;;;;18.63;82.65;99724.13;5114919;28;20420;-72
2021/11/28 12:20:56;;;;;;;18.75;11.82;;;;;;;18.52;83.54;99739.03;5115653;28;20032;-72
2021/11/28 12:23:59;;;;;;;17.40;12.32;;;;;;;18.37;85.02;99745.34;5114102;28;20470;-72
2021/11/28 12:27:00;;;;;;;21.02;12.40;;;;;;;18.20;86.65;99745.53;5099475;28;20059;-72
2021/11/28 12:29:45;;;;;;;17.55;11.82;;;;;;;18.13;87.25;99750.38;5100976;28;20024;-73
2021/11/28 12:32:33;;;;;;;19.42;12.13;;;;;;;18.00;87.96;99751.22;5100962;28;20486;-73
2021/11/28 12:35:37;;;;;;;21.75;12.98;;;;;;;17.70;89.00;99745.22;5114277;28;20042;-73
2021/11/28 12:39:09;;;;;;;16.38;10.10;;;;;;;17.91;87.53;99742.09;5114254;28;20042;-72
2021/11/28 12:41:57;;;;;;;16.02;9.25;;;;;;;17.97;86.08;99743.50;5014181;28;20044;-73
2021/11/28 12:44:48;;;;;;;12.82;8.02;;;;;;;18.19;84.85;99742.03;5114141;28;20019;-73
2021/11/28 12:47:35;;;;;;;11.40;8.15;;;;;;;18.20;85.25;99729.63;5099515;28;20023;-73
2021/11/28 12:50:22;;;;;;;19.92;11.85;;;;;;;18.29;83.70;99731.69;5114174;28;20056;-72
2021/11/28 12:53:08;;;;;;;27.40;16.23;;;;;;;18.39;83.73;99749.59;5114138;28;20028;-72
2021/11/28 12:56:12;;;;;;;36.30;19.60;;;;;;;18.33;84.83;99746.47;5099832;28;20114;-72
2021/11/28 12:59:15;;;;;;;17.95;11.30;;;;;;;18.35;86.61;99747.22;5099276;28;20042;-72